createdAt,value
2023-04-13T00:01:26.360Z,3.30
2023-04-13T00:03:54.943Z,8.37
2023-04-13T00:06:25.013Z,12.73
2023-04-13T00:08:55.586Z,5.77
2023-04-13T00:11:23.947Z,8.47
2023-04-13T00:13:53.421Z,9.23
2023-04-13T00:16:22.315Z,10.13
2023-04-13T00:18:52.405Z,8.20
2023-04-13T00:21:20.535Z,7.37
2023-04-13T00:23:50.038Z,11.17
2023-04-13T00:26:20.680Z,7.30
2023-04-13T00:28:48.852Z,13.70
2023-04-13T00:31:17.177Z,8.60
2023-04-13T00:33:45.494Z,15.60
2023-04-13T00:36:13.689Z,17.03
2023-04-13T00:38:45.040Z,28.17
2023-04-13T00:41:14.947Z,21.60
2023-04-13T00:43:44.974Z,17.90
2023-04-13T00:46:13.086Z,21.90
2023-04-13T00:48:41.331Z,16.33
2023-04-13T00:51:09.670Z,22.17
2023-04-13T00:53:37.875Z,17.50
2023-04-13T00:56:07.008Z,15.33
2023-04-13T00:58:37.136Z,17.03
2023-04-13T01:01:05.801Z,24.90
2023-04-13T01:03:34.171Z,29.03
2023-04-13T01:06:14.520Z,23.03
2023-04-13T01:08:49.257Z,18.20
2023-04-13T01:11:24.609Z,27.10
2023-04-13T01:14:02.080Z,25.53
2023-04-13T01:16:37.097Z,13.93
2023-04-13T01:19:07.507Z,10.60
2023-04-13T01:21:36.963Z,10.10
2023-04-13T01:24:18.027Z,9.23
2023-04-13T01:26:57.289Z,8.00
2023-04-13T01:29:28.541Z,2.97
2023-04-13T01:31:57.829Z,6.00
2023-04-13T01:34:27.061Z,5.30
2023-04-13T01:36:56.403Z,5.13
2023-04-13T01:39:25.558Z,5.43
2023-04-13T01:41:53.773Z,4.03
2023-04-13T01:44:22.740Z,4.20
2023-04-13T01:46:57.909Z,11.37
2023-04-13T01:49:26.614Z,3.93
2023-04-13T01:51:58.596Z,3.17
2023-04-13T01:54:29.004Z,1.47
2023-04-13T01:57:00.390Z,2.33
2023-04-13T01:59:28.636Z,2.40
2023-04-13T02:01:59.596Z,1.63
2023-04-13T02:04:28.296Z,4.60
2023-04-13T02:06:56.434Z,4.77
2023-04-13T02:09:24.708Z,2.73
2023-04-13T02:11:54.138Z,1.60
2023-04-13T02:14:22.569Z,3.20
2023-04-13T02:16:50.730Z,2.40
2023-04-13T02:19:21.766Z,3.10
2023-04-13T02:21:49.896Z,1.53
2023-04-13T02:24:18.223Z,4.57
2023-04-13T02:26:46.555Z,6.93
2023-04-13T02:29:14.957Z,4.00
2023-04-13T02:31:44.167Z,1.73
2023-04-13T02:34:12.574Z,5.13
2023-04-13T02:36:42.024Z,2.03
2023-04-13T02:39:10.647Z,4.87
2023-04-13T02:41:39.199Z,3.73
2023-04-13T02:44:08.566Z,4.10
2023-04-13T02:46:36.853Z,6.07
2023-04-13T02:49:05.107Z,3.73
2023-04-13T02:51:33.236Z,5.00
2023-04-13T02:54:04.201Z,4.03
2023-04-13T02:56:32.512Z,5.83
2023-04-13T02:59:00.851Z,2.27
2023-04-13T03:01:29.557Z,4.93
2023-04-13T03:03:58.201Z,2.73
2023-04-13T03:06:26.451Z,2.53
2023-04-13T03:08:54.777Z,8.27
2023-04-13T03:11:26.090Z,3.80
2023-04-13T03:13:54.864Z,8.57
2023-04-13T03:16:23.173Z,4.63
2023-04-13T03:18:52.236Z,2.53
2023-04-13T03:21:20.709Z,3.83
2023-04-13T03:23:48.826Z,7.27
2023-04-13T03:26:17.080Z,6.13
2023-04-13T03:28:47.282Z,5.87
2023-04-13T03:31:15.555Z,4.73
2023-04-13T03:33:43.763Z,7.83
2023-04-13T03:36:12.372Z,8.87
2023-04-13T03:38:40.761Z,11.07
2023-04-13T03:41:09.424Z,5.90
2023-04-13T03:43:37.646Z,5.30
2023-04-13T03:46:08.083Z,3.37
2023-04-13T03:48:36.197Z,5.90
2023-04-13T03:51:04.712Z,6.77
2023-04-13T03:53:33.246Z,5.90
2023-04-13T03:56:01.333Z,5.07
2023-04-13T03:58:29.827Z,8.43
2023-04-13T04:00:59.301Z,15.97
2023-04-13T04:03:28.821Z,8.00
2023-04-13T04:05:57.258Z,11.93
2023-04-13T04:08:26.550Z,8.43
2023-04-13T04:10:54.642Z,5.70
2023-04-13T04:13:23.434Z,13.27
2023-04-13T04:15:51.639Z,10.43
2023-04-13T04:18:19.775Z,8.53
2023-04-13T04:20:49.447Z,4.13
2023-04-13T04:23:19.826Z,6.23
2023-04-13T04:25:48.622Z,5.23
2023-04-13T04:28:18.171Z,7.87
2023-04-13T04:30:53.938Z,13.20
2023-04-13T04:33:23.492Z,5.20
2023-04-13T04:35:54.191Z,5.83
2023-04-13T04:38:23.638Z,7.17
2023-04-13T04:40:57.763Z,10.03
2023-04-13T04:43:27.243Z,12.97
2023-04-13T04:45:57.785Z,9.10
2023-04-13T04:48:26.934Z,9.27
2023-04-13T04:50:58.064Z,9.90
2023-04-13T04:53:26.281Z,8.40
2023-04-13T04:55:54.604Z,9.77
2023-04-13T04:58:23.026Z,12.93
2023-04-13T05:00:52.814Z,5.13
2023-04-13T05:03:21.104Z,12.33
2023-04-13T05:05:49.602Z,9.87
2023-04-13T05:08:19.097Z,12.10
2023-04-13T05:10:47.269Z,13.33
2023-04-13T05:13:16.215Z,9.83
2023-04-13T05:15:44.336Z,13.97
2023-04-13T05:18:13.270Z,10.13
2023-04-13T05:20:41.746Z,16.13
2023-04-13T05:23:09.988Z,17.47
2023-04-13T05:25:39.889Z,7.83
2023-04-13T05:28:08.343Z,14.60
2023-04-13T05:30:37.466Z,14.73
2023-04-13T05:33:08.301Z,12.63
2023-04-13T05:35:37.601Z,13.13
2023-04-13T05:38:05.750Z,15.80
2023-04-13T05:40:35.248Z,15.77
2023-04-13T05:43:04.817Z,18.57
2023-04-13T05:45:33.151Z,12.90
2023-04-13T05:48:01.380Z,6.53
2023-04-13T05:50:29.744Z,17.53
2023-04-13T05:52:58.325Z,11.67
2023-04-13T05:55:27.724Z,13.43
2023-04-13T05:57:56.016Z,16.37
2023-04-13T06:00:26.058Z,13.73
2023-04-13T06:02:54.726Z,18.77
2023-04-13T06:05:24.308Z,18.17
2023-04-13T06:07:53.625Z,27.47
2023-04-13T06:10:22.452Z,9.93
2023-04-13T06:12:52.481Z,15.70
2023-04-13T06:15:21.737Z,19.17
2023-04-13T06:17:54.008Z,15.57
2023-04-13T06:20:22.668Z,15.57
2023-04-13T06:22:51.104Z,13.37
2023-04-13T06:25:20.009Z,10.80
2023-04-13T06:27:49.823Z,9.00
2023-04-13T06:30:19.012Z,16.63
2023-04-13T06:32:47.943Z,16.63
2023-04-13T06:35:17.622Z,16.70
2023-04-13T06:37:46.201Z,8.43
2023-04-13T06:40:16.192Z,13.60
2023-04-13T06:42:44.726Z,16.40
2023-04-13T06:45:13.736Z,10.50
2023-04-13T06:47:42.231Z,16.13
2023-04-13T06:50:13.980Z,11.60
2023-04-13T06:52:45.404Z,13.80
2023-04-13T06:55:13.812Z,15.00
2023-04-13T06:57:42.267Z,16.33
2023-04-13T07:00:26.491Z,19.17
2023-04-13T07:02:59.349Z,12.60
2023-04-13T07:05:28.173Z,12.07
2023-04-13T07:07:58.324Z,12.07
2023-04-13T07:10:28.208Z,7.50
2023-04-13T07:12:56.445Z,14.17
2023-04-13T07:15:24.557Z,13.67
2023-04-13T07:17:52.984Z,7.23
2023-04-13T07:20:21.850Z,8.57
2023-04-13T07:22:49.972Z,12.30
2023-04-13T07:25:21.615Z,7.63
2023-04-13T07:27:50.549Z,12.37
2023-04-13T07:30:18.924Z,12.73
2023-04-13T07:32:47.064Z,9.83
2023-04-13T07:35:15.472Z,9.43
2023-04-13T07:37:44.501Z,10.63
2023-04-13T07:40:13.241Z,14.43
2023-04-13T07:42:43.081Z,9.13
2023-04-13T07:45:11.889Z,14.13
2023-04-13T07:47:40.158Z,9.73
2023-04-13T07:50:09.958Z,15.03
2023-04-13T07:52:38.509Z,9.20
2023-04-13T07:55:08.264Z,11.57
2023-04-13T07:57:36.478Z,8.33
2023-04-13T08:00:07.232Z,13.50
2023-04-13T08:02:37.135Z,10.83
2023-04-13T08:05:07.206Z,8.07
2023-04-13T08:07:36.331Z,10.90
2023-04-13T08:10:04.788Z,9.77
2023-04-13T08:12:33.214Z,13.40
2023-04-13T08:15:01.450Z,10.67
2023-04-13T08:17:31.712Z,15.13
2023-04-13T08:20:00.172Z,18.10
2023-04-13T08:22:28.483Z,8.40
2023-04-13T08:24:56.643Z,14.27
2023-04-13T08:27:25.494Z,13.10
2023-04-13T08:29:57.050Z,9.17
2023-04-13T08:32:25.475Z,10.57
2023-04-13T08:34:55.972Z,8.20
2023-04-13T08:37:24.654Z,8.67
2023-04-13T08:39:56.751Z,11.20
2023-04-13T08:42:27.016Z,14.10
2023-04-13T08:44:59.832Z,8.90
2023-04-13T08:47:28.994Z,8.33
2023-04-13T08:50:00.276Z,9.30
2023-04-13T08:52:29.547Z,8.80
2023-04-13T08:55:00.907Z,6.93
2023-04-13T08:57:30.655Z,4.60
2023-04-13T09:00:00.247Z,6.20
2023-04-13T09:02:35.807Z,9.30
2023-04-13T09:05:16.548Z,7.27
2023-04-13T09:07:51.398Z,7.87
2023-04-13T09:10:20.301Z,10.07
2023-04-13T09:12:50.371Z,9.20
2023-04-13T09:15:18.646Z,7.20
2023-04-13T09:17:48.475Z,10.80
2023-04-13T09:20:21.966Z,6.83
2023-04-13T09:22:51.664Z,8.00
2023-04-13T09:25:25.119Z,7.70
2023-04-13T09:27:53.534Z,6.37
2023-04-13T09:30:23.129Z,9.23
2023-04-13T09:33:04.874Z,6.90
2023-04-13T09:35:35.786Z,7.60
2023-04-13T09:38:05.066Z,8.23
2023-04-13T09:40:38.450Z,5.97
2023-04-13T09:43:09.635Z,5.77
2023-04-13T09:45:39.353Z,4.17
2023-04-13T09:48:18.613Z,7.97
2023-04-13T09:50:59.298Z,7.40
2023-04-13T09:53:28.847Z,6.73
2023-04-13T09:56:00.928Z,7.60
2023-04-13T09:58:32.699Z,4.40
2023-04-13T10:01:01.774Z,8.43
2023-04-13T10:03:31.928Z,3.33
2023-04-13T10:06:02.094Z,7.37
2023-04-13T10:08:38.223Z,3.87
2023-04-13T10:11:12.698Z,7.50
2023-04-13T10:13:49.399Z,5.50
2023-04-13T10:16:52.324Z,7.47
2023-04-13T10:19:25.336Z,3.00
2023-04-13T10:21:56.775Z,5.90
2023-04-13T10:24:25.531Z,3.77
2023-04-13T10:26:55.550Z,5.73
2023-04-13T10:29:29.155Z,7.43
2023-04-13T10:32:03.474Z,6.13
2023-04-13T10:34:34.397Z,7.93
2023-04-13T10:37:06.810Z,5.87
2023-04-13T10:39:36.185Z,7.60
2023-04-13T10:42:06.907Z,6.73
2023-04-13T10:44:49.211Z,4.30
2023-04-13T10:47:26.558Z,5.93
2023-04-13T10:49:56.448Z,5.07
2023-04-13T10:52:26.201Z,3.73
2023-04-13T10:54:55.354Z,4.90
2023-04-13T10:57:23.699Z,5.30
2023-04-13T10:59:58.931Z,6.93
2023-04-13T11:02:33.162Z,5.27
2023-04-13T11:05:02.276Z,6.77
2023-04-13T11:07:33.132Z,5.13
2023-04-13T11:10:03.238Z,3.87
2023-04-13T11:12:32.436Z,5.20
2023-04-13T11:15:01.065Z,4.83
2023-04-13T11:17:29.666Z,3.93
2023-04-13T11:19:59.266Z,2.17
2023-04-13T11:22:29.118Z,7.00
2023-04-13T11:25:09.460Z,5.43
2023-04-13T11:27:37.997Z,5.63
2023-04-13T11:30:09.476Z,4.37
2023-04-13T11:32:41.796Z,4.87
2023-04-13T11:35:11.015Z,4.00
2023-04-13T11:37:40.362Z,5.83
2023-04-13T11:40:13.275Z,3.17
2023-04-13T11:42:43.905Z,1.97
2023-04-13T11:45:14.858Z,7.03
2023-04-13T11:47:43.138Z,4.10
2023-04-13T11:50:13.010Z,3.03
2023-04-13T11:52:42.791Z,3.40
2023-04-13T11:55:22.140Z,4.50
2023-04-13T11:57:51.394Z,6.40
2023-04-13T12:00:24.013Z,2.80
2023-04-13T12:03:01.763Z,3.10
2023-04-13T12:05:33.151Z,4.47
2023-04-13T12:08:04.512Z,5.20
2023-04-13T12:10:41.467Z,3.17
2023-04-13T12:13:34.821Z,4.23
2023-04-13T12:16:11.740Z,8.37
2023-04-13T12:18:48.376Z,5.03
2023-04-13T12:21:20.534Z,2.57
2023-04-13T12:23:55.625Z,3.20
2023-04-13T12:27:16.260Z,4.73
2023-04-13T12:29:23.951Z,6.83
2023-04-13T12:31:52.299Z,6.07
2023-04-13T12:34:21.035Z,6.83
2023-04-13T12:36:49.233Z,4.17
2023-04-13T12:39:17.405Z,5.27
2023-04-13T12:41:46.862Z,3.50
2023-04-13T12:44:15.348Z,4.10
2023-04-13T12:46:43.727Z,6.73
2023-04-13T12:49:11.870Z,3.80
2023-04-13T12:51:40.165Z,2.97
2023-04-13T12:54:13.333Z,5.83
2023-04-13T12:56:42.030Z,4.43
2023-04-13T12:59:12.200Z,3.60
2023-04-13T13:01:40.391Z,2.83
2023-04-13T13:04:08.779Z,3.83
2023-04-13T13:06:37.048Z,5.50
2023-04-13T13:09:05.935Z,2.80
2023-04-13T13:11:34.566Z,5.70
2023-04-13T13:14:02.972Z,3.67
2023-04-13T13:16:32.725Z,2.10
2023-04-13T13:19:01.260Z,2.90
2023-04-13T13:21:30.267Z,4.80
2023-04-13T13:23:58.537Z,6.30
2023-04-13T13:26:30.596Z,5.43
2023-04-13T13:29:08.526Z,7.03
2023-04-13T13:31:38.873Z,5.40
2023-04-13T13:34:06.948Z,2.27
2023-04-13T13:36:35.298Z,3.47
2023-04-13T13:39:04.484Z,4.57
2023-04-13T13:41:32.647Z,4.97
2023-04-13T13:44:01.025Z,5.87
2023-04-13T13:46:29.421Z,5.27
2023-04-13T13:48:59.483Z,5.43
2023-04-13T13:51:28.493Z,6.00
2023-04-13T13:53:56.698Z,4.43
2023-04-13T13:56:24.924Z,5.77
2023-04-13T13:58:53.169Z,6.83
2023-04-13T14:01:21.882Z,3.90
2023-04-13T14:03:50.088Z,6.00
2023-04-13T14:06:20.367Z,2.67
2023-04-13T14:08:48.708Z,2.33
2023-04-13T14:11:16.929Z,7.03
2023-04-13T14:13:45.255Z,4.13
2023-04-13T14:16:13.797Z,5.17
2023-04-13T14:18:42.103Z,4.77
2023-04-13T14:21:10.868Z,5.93
2023-04-13T14:23:41.426Z,7.97
2023-04-13T14:26:10.036Z,5.27
2023-04-13T14:28:39.177Z,7.87
2023-04-13T14:31:07.363Z,4.30
2023-04-13T14:33:35.532Z,4.40
2023-04-13T14:36:03.756Z,9.10
2023-04-13T14:38:31.985Z,5.27
2023-04-13T14:41:01.786Z,7.07
2023-04-13T14:43:30.170Z,3.60
2023-04-13T14:45:59.048Z,4.77
2023-04-13T14:48:27.618Z,6.67
2023-04-13T14:50:56.420Z,2.30
2023-04-13T14:53:24.681Z,6.10
2023-04-13T14:55:52.830Z,2.50
2023-04-13T14:58:22.490Z,4.20
2023-04-13T15:00:50.801Z,3.57
2023-04-13T15:03:19.145Z,17.43
2023-04-13T15:05:48.432Z,4.37
2023-04-13T15:08:17.870Z,7.13
2023-04-13T15:10:46.497Z,4.73
2023-04-13T15:13:14.794Z,5.03
2023-04-13T15:15:44.900Z,3.10
2023-04-13T15:18:13.265Z,5.50
2023-04-13T15:20:41.729Z,4.73
2023-04-13T15:23:10.379Z,3.53
2023-04-13T15:25:39.074Z,2.07
2023-04-13T15:28:07.310Z,4.40
2023-04-13T15:30:35.858Z,3.23
2023-04-13T15:33:05.622Z,1.83
2023-04-13T15:35:36.535Z,3.17
2023-04-13T15:38:05.563Z,5.97
2023-04-13T15:40:35.232Z,8.07
2023-04-13T15:43:04.133Z,4.13
2023-04-13T15:45:32.512Z,3.43
2023-04-13T15:48:00.738Z,4.20
2023-04-13T15:50:30.848Z,4.47
2023-04-13T15:52:59.651Z,5.07
2023-04-13T15:55:28.331Z,5.67
2023-04-13T15:57:57.364Z,5.33
2023-04-13T16:00:26.186Z,6.47
2023-04-13T16:02:54.482Z,3.10
2023-04-13T16:05:23.117Z,7.70
2023-04-13T16:07:52.769Z,4.67
2023-04-13T16:10:21.143Z,4.77
2023-04-13T16:12:50.242Z,5.43
2023-04-13T16:15:19.459Z,2.70
2023-04-13T16:17:48.282Z,6.77
2023-04-13T16:20:19.998Z,3.17
2023-04-13T16:22:51.934Z,5.80
2023-04-13T16:25:22.199Z,4.03
2023-04-13T16:27:50.720Z,4.90
2023-04-13T16:30:21.619Z,6.37
2023-04-13T16:32:51.069Z,10.33
2023-04-13T16:35:19.348Z,7.60
2023-04-13T16:37:47.477Z,6.90
2023-04-13T16:40:16.984Z,5.93
2023-04-13T16:42:46.996Z,5.83
2023-04-13T16:45:18.145Z,6.27
2023-04-13T16:47:46.522Z,4.37
2023-04-13T16:50:14.637Z,7.20
2023-04-13T16:52:44.276Z,4.73
2023-04-13T16:55:16.447Z,4.20
2023-04-13T16:57:46.395Z,6.07
2023-04-13T17:00:15.658Z,10.87
2023-04-13T17:02:44.431Z,13.80
2023-04-13T17:05:13.781Z,7.77
2023-04-13T17:07:44.238Z,5.67
2023-04-13T17:10:14.891Z,5.70
2023-04-13T17:12:42.997Z,6.50
2023-04-13T17:15:12.850Z,8.93
2023-04-13T17:17:41.725Z,9.97
2023-04-13T17:20:10.755Z,6.13
2023-04-13T17:22:39.026Z,8.33
2023-04-13T17:25:08.547Z,6.57
2023-04-13T17:27:36.658Z,6.93
2023-04-13T17:30:05.363Z,14.00
2023-04-13T17:32:35.418Z,5.33
2023-04-13T17:35:04.081Z,5.57
2023-04-13T17:37:32.214Z,8.57
2023-04-13T17:40:01.305Z,5.20
2023-04-13T17:42:29.592Z,7.47
2023-04-13T17:44:57.769Z,6.20
2023-04-13T17:47:26.172Z,4.40
2023-04-13T17:49:56.290Z,4.63
2023-04-13T17:52:24.385Z,3.47
2023-04-13T17:54:52.658Z,3.03
2023-04-13T17:57:20.938Z,7.33
2023-04-13T17:59:48.999Z,2.40
2023-04-13T18:02:17.499Z,5.33
2023-04-13T18:04:46.564Z,7.33
2023-04-13T18:07:16.166Z,5.70
2023-04-13T18:09:44.534Z,5.37
2023-04-13T18:12:12.913Z,5.13
2023-04-13T18:14:41.317Z,3.27
2023-04-13T18:17:10.077Z,6.00
2023-04-13T18:19:38.172Z,5.03
2023-04-13T18:22:06.322Z,4.17
2023-04-13T18:24:36.070Z,7.87
2023-04-13T18:27:04.256Z,4.93
2023-04-13T18:29:32.314Z,3.53
2023-04-13T18:32:00.781Z,4.90
2023-04-13T18:34:30.834Z,6.00
2023-04-13T18:36:59.473Z,5.57
2023-04-13T18:39:27.839Z,4.27
2023-04-13T18:41:57.268Z,6.43
2023-04-13T18:44:25.362Z,4.00
2023-04-13T18:46:53.980Z,6.53
2023-04-13T18:49:22.226Z,7.30
2023-04-13T18:51:50.346Z,5.27
2023-04-13T18:54:18.886Z,4.80
2023-04-13T18:56:46.979Z,6.77
2023-04-13T18:59:16.501Z,8.77
2023-04-13T19:01:44.826Z,4.73
2023-04-13T19:04:13.115Z,10.17
2023-04-13T19:06:41.381Z,18.07
2023-04-13T19:09:09.839Z,20.53
2023-04-13T19:11:49.144Z,18.73
2023-04-13T19:14:19.406Z,12.60
2023-04-13T19:16:48.404Z,7.30
2023-04-13T19:19:16.571Z,5.77
2023-04-13T19:21:44.900Z,7.97
2023-04-13T19:24:13.510Z,7.10
2023-04-13T19:26:41.798Z,5.70
2023-04-13T19:29:12.663Z,7.97
2023-04-13T19:31:45.016Z,11.40
2023-04-13T19:34:13.884Z,7.93
2023-04-13T19:36:42.246Z,6.53
2023-04-13T19:39:10.690Z,8.50
2023-04-13T19:41:41.053Z,8.07
2023-04-13T19:44:10.017Z,12.17
2023-04-13T19:46:38.657Z,7.80
2023-04-13T19:49:08.601Z,9.23
2023-04-13T19:51:36.989Z,10.40
2023-04-13T19:54:06.044Z,10.17
2023-04-13T19:56:37.564Z,11.10
2023-04-13T19:59:06.655Z,9.37
2023-04-13T20:01:35.564Z,8.33
2023-04-13T20:04:05.920Z,10.73
2023-04-13T20:06:36.000Z,9.00
2023-04-13T20:09:11.442Z,9.67
2023-04-13T20:11:41.160Z,11.37
2023-04-13T20:14:11.367Z,11.23
2023-04-13T20:16:40.080Z,14.73
2023-04-13T20:19:09.390Z,12.77
2023-04-13T20:21:42.320Z,18.03
2023-04-13T20:24:10.496Z,8.77
2023-04-13T20:26:39.729Z,11.37
2023-04-13T20:29:08.153Z,17.57
2023-04-13T20:31:36.924Z,14.03
2023-04-13T20:34:07.218Z,16.60
2023-04-13T20:36:35.461Z,12.07
2023-04-13T20:39:05.922Z,11.97
2023-04-13T20:41:34.929Z,14.60
2023-04-13T20:44:04.320Z,16.73
2023-04-13T20:46:35.818Z,13.80
2023-04-13T20:49:05.646Z,20.60
2023-04-13T20:51:34.369Z,15.80
2023-04-13T20:54:05.713Z,13.83
2023-04-13T20:56:34.362Z,17.00
2023-04-13T20:59:03.440Z,9.87
2023-04-13T21:01:31.892Z,15.50
2023-04-13T21:04:00.729Z,14.03
2023-04-13T21:06:29.970Z,16.33
2023-04-13T21:08:59.125Z,13.30
2023-04-13T21:11:29.405Z,12.00
2023-04-13T21:13:57.615Z,16.00
2023-04-13T21:16:26.813Z,16.07
2023-04-13T21:18:56.254Z,15.73
2023-04-13T21:21:25.278Z,11.57
2023-04-13T21:23:54.531Z,15.47
2023-04-13T21:26:23.117Z,12.37
2023-04-13T21:28:52.764Z,15.27
2023-04-13T21:31:20.923Z,11.70
2023-04-13T21:33:49.767Z,10.40
2023-04-13T21:38:49.167Z,11.73
2023-04-13T21:41:17.887Z,15.00
2023-04-13T21:43:46.568Z,13.50
2023-04-13T21:46:16.867Z,14.47
2023-04-13T21:48:45.170Z,11.00
2023-04-13T21:51:13.412Z,12.07
2023-04-13T21:53:41.564Z,20.90
2023-04-13T21:56:10.109Z,11.63
2023-04-13T21:58:42.856Z,13.57
2023-04-13T22:01:12.960Z,14.70
2023-04-13T22:03:44.082Z,16.23
2023-04-13T22:06:12.728Z,17.00
2023-04-13T22:08:41.551Z,13.80
2023-04-13T22:11:09.919Z,11.93
2023-04-13T22:13:38.160Z,14.87
2023-04-13T22:16:07.009Z,10.03
2023-04-13T22:18:35.220Z,12.87
2023-04-13T22:21:05.089Z,10.47
2023-04-13T22:23:33.716Z,11.87
2023-04-13T22:26:01.988Z,10.10
2023-04-13T22:28:30.997Z,10.37
2023-04-13T22:30:59.776Z,13.13
2023-04-13T22:33:31.752Z,13.43
2023-04-13T22:36:00.420Z,10.27
2023-04-13T22:38:29.957Z,7.40
2023-04-13T22:40:58.607Z,10.63
2023-04-13T22:43:27.290Z,8.63
2023-04-13T22:45:59.117Z,9.23
2023-04-13T22:48:29.268Z,12.13
2023-04-13T22:50:58.682Z,10.23
2023-04-13T22:53:27.192Z,9.40
2023-04-13T22:55:56.802Z,9.07
2023-04-13T22:58:24.875Z,8.27
2023-04-13T23:00:53.235Z,11.40
2023-04-13T23:03:21.703Z,9.03
2023-04-13T23:05:50.102Z,10.77
2023-04-13T23:08:18.479Z,7.83
2023-04-13T23:10:46.768Z,9.20
2023-04-13T23:13:16.321Z,8.93
2023-04-13T23:15:44.812Z,7.10
2023-04-13T23:18:13.004Z,12.13
2023-04-13T23:20:41.119Z,9.17
2023-04-13T23:23:09.455Z,8.17
2023-04-13T23:25:37.718Z,7.40
2023-04-13T23:28:06.205Z,6.50
2023-04-13T23:30:35.854Z,8.13
2023-04-13T23:33:04.252Z,10.27
2023-04-13T23:35:32.445Z,6.70
2023-04-13T23:38:00.957Z,9.33
2023-04-13T23:40:29.423Z,11.00
2023-04-13T23:42:57.584Z,13.07
2023-04-13T23:45:25.943Z,6.70
2023-04-13T23:47:55.845Z,11.77
2023-04-13T23:50:23.970Z,11.53
2023-04-13T23:52:52.426Z,9.33
2023-04-13T23:55:20.604Z,8.37
2023-04-13T23:57:48.710Z,7.50
